sensor_id;sensor_type;location;lat;lon;timestamp;temperature;humidity
17215;DHT22;8723;51.502;6.918;2023-11-19T00:02:25;10.40;99.90
17215;DHT22;8723;51.502;6.918;2023-11-19T00:04:54;10.50;99.90
17215;DHT22;8723;51.502;6.918;2023-11-19T00:07:23;10.40;99.90
17215;DHT22;8723;51.502;6.918;2023-11-19T00:09:51;10.40;99.90
17215;DHT22;8723;51.502;6.918;2023-11-19T00:12:18;10.40;99.90
17215;DHT22;8723;51.502;6.918;2023-11-19T00:14:45;10.40;99.90
17215;DHT22;8723;51.502;6.918;2023-11-19T00:17:12;10.40;99.90
17215;DHT22;8723;51.502;6.918;2023-11-19T00:19:39;10.50;99.90
17215;DHT22;8723;51.502;6.918;2023-11-19T00:22:07;10.60;99.90
17215;DHT22;8723;51.502;6.918;2023-11-19T00:24:34;10.60;99.90
17215;DHT22;8723;51.502;6.918;2023-11-19T00:27:00;10.60;99.90
17215;DHT22;8723;51.502;6.918;2023-11-19T00:29:27;10.70;99.90
17215;DHT22;8723;51.502;6.918;2023-11-19T00:31:54;10.70;99.90
17215;DHT22;8723;51.502;6.918;2023-11-19T00:34:21;10.80;99.90
17215;DHT22;8723;51.502;6.918;2023-11-19T00:36:48;10.80;99.90
17215;DHT22;8723;51.502;6.918;2023-11-19T00:39:16;10.80;99.90
17215;DHT22;8723;51.502;6.918;2023-11-19T00:41:46;10.90;99.90
17215;DHT22;8723;51.502;6.918;2023-11-19T00:44:12;10.90;99.90
17215;DHT22;8723;51.502;6.918;2023-11-19T00:46:39;11.00;99.90
17215;DHT22;8723;51.502;6.918;2023-11-19T00:49:06;11.00;99.90
17215;DHT22;8723;51.502;6.918;2023-11-19T00:51:33;11.00;99.90
17215;DHT22;8723;51.502;6.918;2023-11-19T00:54:00;11.00;99.90
17215;DHT22;8723;51.502;6.918;2023-11-19T00:56:28;11.00;99.90
17215;DHT22;8723;51.502;6.918;2023-11-19T00:58:55;11.10;99.90
17215;DHT22;8723;51.502;6.918;2023-11-19T01:01:22;11.00;99.90
17215;DHT22;8723;51.502;6.918;2023-11-19T01:03:50;11.10;99.90
17215;DHT22;8723;51.502;6.918;2023-11-19T01:06:27;11.10;99.90
17215;DHT22;8723;51.502;6.918;2023-11-19T01:08:54;11.00;99.90
17215;DHT22;8723;51.502;6.918;2023-11-19T01:11:22;11.00;99.90
17215;DHT22;8723;51.502;6.918;2023-11-19T01:13:51;10.90;99.90
17215;DHT22;8723;51.502;6.918;2023-11-19T01:16:19;11.00;99.90
17215;DHT22;8723;51.502;6.918;2023-11-19T01:18:47;11.20;99.90
17215;DHT22;8723;51.502;6.918;2023-11-19T01:21:14;11.20;99.90
17215;DHT22;8723;51.502;6.918;2023-11-19T01:23:41;11.30;99.90
17215;DHT22;8723;51.502;6.918;2023-11-19T01:26:09;11.20;99.90
17215;DHT22;8723;51.502;6.918;2023-11-19T01:28:37;11.20;99.90
17215;DHT22;8723;51.502;6.918;2023-11-19T01:31:08;11.40;99.90
17215;DHT22;8723;51.502;6.918;2023-11-19T01:33:36;11.40;99.90
17215;DHT22;8723;51.502;6.918;2023-11-19T01:36:04;11.40;99.90
17215;DHT22;8723;51.502;6.918;2023-11-19T01:38:31;11.50;99.90
17215;DHT22;8723;51.502;6.918;2023-11-19T01:40:58;11.60;99.90
17215;DHT22;8723;51.502;6.918;2023-11-19T01:43:34;11.50;99.90
17215;DHT22;8723;51.502;6.918;2023-11-19T01:46:01;11.60;99.90
17215;DHT22;8723;51.502;6.918;2023-11-19T01:48:31;11.60;99.90
17215;DHT22;8723;51.502;6.918;2023-11-19T01:50:58;11.70;99.90
17215;DHT22;8723;51.502;6.918;2023-11-19T01:53:27;11.70;99.90
17215;DHT22;8723;51.502;6.918;2023-11-19T01:55:54;11.70;99.90
17215;DHT22;8723;51.502;6.918;2023-11-19T01:58:22;11.70;99.90
17215;DHT22;8723;51.502;6.918;2023-11-19T02:00:49;11.70;99.90
17215;DHT22;8723;51.502;6.918;2023-11-19T02:03:16;11.70;99.90
17215;DHT22;8723;51.502;6.918;2023-11-19T02:05:48;11.80;99.90
17215;DHT22;8723;51.502;6.918;2023-11-19T02:08:16;11.80;99.90
17215;DHT22;8723;51.502;6.918;2023-11-19T02:10:43;11.80;99.90
17215;DHT22;8723;51.502;6.918;2023-11-19T02:13:10;11.90;99.90
17215;DHT22;8723;51.502;6.918;2023-11-19T02:15:40;11.90;99.90
17215;DHT22;8723;51.502;6.918;2023-11-19T02:18:20;11.90;99.90
17215;DHT22;8723;51.502;6.918;2023-11-19T02:20:49;11.90;99.90
17215;DHT22;8723;51.502;6.918;2023-11-19T02:23:16;11.90;99.90
17215;DHT22;8723;51.502;6.918;2023-11-19T02:25:47;11.90;99.90
17215;DHT22;8723;51.502;6.918;2023-11-19T02:28:18;12.00;99.90
17215;DHT22;8723;51.502;6.918;2023-11-19T02:30:45;11.90;99.90
17215;DHT22;8723;51.502;6.918;2023-11-19T02:33:13;11.90;99.90
17215;DHT22;8723;51.502;6.918;2023-11-19T02:35:40;11.90;99.90
17215;DHT22;8723;51.502;6.918;2023-11-19T02:38:07;11.90;99.90
17215;DHT22;8723;51.502;6.918;2023-11-19T02:40:34;11.90;99.90
17215;DHT22;8723;51.502;6.918;2023-11-19T02:43:03;11.90;99.90
17215;DHT22;8723;51.502;6.918;2023-11-19T02:45:34;11.90;99.90
17215;DHT22;8723;51.502;6.918;2023-11-19T02:48:04;12.00;99.90
17215;DHT22;8723;51.502;6.918;2023-11-19T02:50:34;11.90;99.90
17215;DHT22;8723;51.502;6.918;2023-11-19T02:53:04;11.90;99.90
17215;DHT22;8723;51.502;6.918;2023-11-19T02:55:34;11.90;99.90
17215;DHT22;8723;51.502;6.918;2023-11-19T02:58:06;11.90;99.90
17215;DHT22;8723;51.502;6.918;2023-11-19T03:00:48;11.90;99.90
17215;DHT22;8723;51.502;6.918;2023-11-19T03:03:25;11.90;99.90
17215;DHT22;8723;51.502;6.918;2023-11-19T03:05:58;11.90;99.90
17215;DHT22;8723;51.502;6.918;2023-11-19T03:08:32;11.90;99.90
17215;DHT22;8723;51.502;6.918;2023-11-19T03:11:00;12.00;99.90
17215;DHT22;8723;51.502;6.918;2023-11-19T03:13:27;12.00;99.90
17215;DHT22;8723;51.502;6.918;2023-11-19T03:15:56;12.00;99.90
17215;DHT22;8723;51.502;6.918;2023-11-19T03:18:25;12.00;99.90
17215;DHT22;8723;51.502;6.918;2023-11-19T03:20:55;12.10;99.90
17215;DHT22;8723;51.502;6.918;2023-11-19T03:23:25;12.10;99.90
17215;DHT22;8723;51.502;6.918;2023-11-19T03:25:55;12.00;99.90
17215;DHT22;8723;51.502;6.918;2023-11-19T03:28:23;12.00;99.90
17215;DHT22;8723;51.502;6.918;2023-11-19T03:30:55;12.10;99.90
17215;DHT22;8723;51.502;6.918;2023-11-19T03:33:25;12.00;99.90
17215;DHT22;8723;51.502;6.918;2023-11-19T03:35:56;11.90;99.90
17215;DHT22;8723;51.502;6.918;2023-11-19T03:38:24;11.90;99.90
17215;DHT22;8723;51.502;6.918;2023-11-19T03:40:51;11.80;99.90
17215;DHT22;8723;51.502;6.918;2023-11-19T03:43:18;11.90;99.90
17215;DHT22;8723;51.502;6.918;2023-11-19T03:45:45;11.80;99.90
17215;DHT22;8723;51.502;6.918;2023-11-19T03:48:15;11.80;99.90
17215;DHT22;8723;51.502;6.918;2023-11-19T03:50:42;11.70;99.90
17215;DHT22;8723;51.502;6.918;2023-11-19T03:53:09;11.70;99.90
17215;DHT22;8723;51.502;6.918;2023-11-19T03:55:36;11.60;99.90
17215;DHT22;8723;51.502;6.918;2023-11-19T03:58:02;11.60;99.90
17215;DHT22;8723;51.502;6.918;2023-11-19T04:00:29;11.50;99.90
17215;DHT22;8723;51.502;6.918;2023-11-19T04:02:58;11.40;99.90
17215;DHT22;8723;51.502;6.918;2023-11-19T04:05:28;11.30;99.90
17215;DHT22;8723;51.502;6.918;2023-11-19T04:07:58;11.30;99.90
17215;DHT22;8723;51.502;6.918;2023-11-19T04:10:27;11.30;99.90
17215;DHT22;8723;51.502;6.918;2023-11-19T04:12:55;11.20;99.90
17215;DHT22;8723;51.502;6.918;2023-11-19T04:15:22;11.20;99.90
17215;DHT22;8723;51.502;6.918;2023-11-19T04:17:49;11.20;99.90
17215;DHT22;8723;51.502;6.918;2023-11-19T04:20:16;11.20;99.90
17215;DHT22;8723;51.502;6.918;2023-11-19T04:22:45;11.20;99.90
17215;DHT22;8723;51.502;6.918;2023-11-19T04:25:11;11.10;99.90
17215;DHT22;8723;51.502;6.918;2023-11-19T04:27:39;11.00;99.90
17215;DHT22;8723;51.502;6.918;2023-11-19T04:30:07;11.00;99.90
17215;DHT22;8723;51.502;6.918;2023-11-19T04:32:36;11.00;99.90
17215;DHT22;8723;51.502;6.918;2023-11-19T04:35:06;10.90;99.90
17215;DHT22;8723;51.502;6.918;2023-11-19T04:37:36;10.90;99.90
17215;DHT22;8723;51.502;6.918;2023-11-19T04:40:06;10.90;99.90
17215;DHT22;8723;51.502;6.918;2023-11-19T04:42:33;10.90;99.90
17215;DHT22;8723;51.502;6.918;2023-11-19T04:45:00;10.90;99.90
17215;DHT22;8723;51.502;6.918;2023-11-19T04:47:26;10.90;99.90
17215;DHT22;8723;51.502;6.918;2023-11-19T04:49:53;10.90;99.90
17215;DHT22;8723;51.502;6.918;2023-11-19T04:52:20;10.90;99.90
17215;DHT22;8723;51.502;6.918;2023-11-19T04:54:47;10.90;99.90
17215;DHT22;8723;51.502;6.918;2023-11-19T04:57:15;11.00;99.90
17215;DHT22;8723;51.502;6.918;2023-11-19T04:59:42;11.00;99.90
17215;DHT22;8723;51.502;6.918;2023-11-19T05:02:09;11.00;99.90
17215;DHT22;8723;51.502;6.918;2023-11-19T05:04:35;11.10;99.90
17215;DHT22;8723;51.502;6.918;2023-11-19T05:07:03;11.10;99.90
17215;DHT22;8723;51.502;6.918;2023-11-19T05:09:31;11.20;99.90
17215;DHT22;8723;51.502;6.918;2023-11-19T05:11:58;11.30;99.90
17215;DHT22;8723;51.502;6.918;2023-11-19T05:14:26;11.30;99.90
17215;DHT22;8723;51.502;6.918;2023-11-19T05:16:53;11.30;99.90
17215;DHT22;8723;51.502;6.918;2023-11-19T05:19:20;11.30;99.90
17215;DHT22;8723;51.502;6.918;2023-11-19T05:21:46;11.30;99.90
17215;DHT22;8723;51.502;6.918;2023-11-19T05:24:14;11.30;99.90
17215;DHT22;8723;51.502;6.918;2023-11-19T05:26:41;11.40;99.90
17215;DHT22;8723;51.502;6.918;2023-11-19T05:29:08;11.40;99.90
17215;DHT22;8723;51.502;6.918;2023-11-19T05:31:36;11.50;99.90
17215;DHT22;8723;51.502;6.918;2023-11-19T05:34:03;11.50;99.90
17215;DHT22;8723;51.502;6.918;2023-11-19T05:36:30;11.40;99.90
17215;DHT22;8723;51.502;6.918;2023-11-19T05:38:57;11.30;99.90
17215;DHT22;8723;51.502;6.918;2023-11-19T05:41:24;11.30;99.90
17215;DHT22;8723;51.502;6.918;2023-11-19T05:43:50;11.40;99.90
17215;DHT22;8723;51.502;6.918;2023-11-19T05:46:17;11.30;99.90
17215;DHT22;8723;51.502;6.918;2023-11-19T05:48:45;11.30;99.90
17215;DHT22;8723;51.502;6.918;2023-11-19T05:51:12;11.20;99.90
17215;DHT22;8723;51.502;6.918;2023-11-19T05:53:40;11.20;99.90
17215;DHT22;8723;51.502;6.918;2023-11-19T05:56:08;11.20;99.90
17215;DHT22;8723;51.502;6.918;2023-11-19T05:58:35;11.30;99.90
17215;DHT22;8723;51.502;6.918;2023-11-19T06:01:03;11.30;99.90
17215;DHT22;8723;51.502;6.918;2023-11-19T06:03:32;11.30;99.90
17215;DHT22;8723;51.502;6.918;2023-11-19T06:06:00;11.30;99.90
17215;DHT22;8723;51.502;6.918;2023-11-19T06:08:27;11.30;99.90
17215;DHT22;8723;51.502;6.918;2023-11-19T06:10:56;11.30;99.90
17215;DHT22;8723;51.502;6.918;2023-11-19T06:13:22;11.30;99.90
17215;DHT22;8723;51.502;6.918;2023-11-19T06:15:51;11.30;99.90
17215;DHT22;8723;51.502;6.918;2023-11-19T06:18:17;11.20;99.90
17215;DHT22;8723;51.502;6.918;2023-11-19T06:20:45;11.20;99.90
17215;DHT22;8723;51.502;6.918;2023-11-19T06:23:13;11.10;99.90
17215;DHT22;8723;51.502;6.918;2023-11-19T06:25:40;11.10;99.90
17215;DHT22;8723;51.502;6.918;2023-11-19T06:28:07;11.00;99.90
17215;DHT22;8723;51.502;6.918;2023-11-19T06:30:34;10.90;99.90
17215;DHT22;8723;51.502;6.918;2023-11-19T06:33:01;10.90;99.90
17215;DHT22;8723;51.502;6.918;2023-11-19T06:35:28;10.90;99.90
17215;DHT22;8723;51.502;6.918;2023-11-19T06:38:01;10.90;99.90
17215;DHT22;8723;51.502;6.918;2023-11-19T06:40:31;10.90;99.90
17215;DHT22;8723;51.502;6.918;2023-11-19T06:42:58;11.00;99.90
17215;DHT22;8723;51.502;6.918;2023-11-19T06:45:25;11.00;99.90
17215;DHT22;8723;51.502;6.918;2023-11-19T06:47:51;11.00;99.90
17215;DHT22;8723;51.502;6.918;2023-11-19T06:50:18;11.10;99.90
17215;DHT22;8723;51.502;6.918;2023-11-19T06:52:45;11.10;99.90
17215;DHT22;8723;51.502;6.918;2023-11-19T06:55:12;11.20;99.90
17215;DHT22;8723;51.502;6.918;2023-11-19T06:57:41;11.10;99.90
17215;DHT22;8723;51.502;6.918;2023-11-19T07:00:08;11.10;99.90
17215;DHT22;8723;51.502;6.918;2023-11-19T07:02:36;11.10;99.90
17215;DHT22;8723;51.502;6.918;2023-11-19T07:05:04;11.10;99.90
17215;DHT22;8723;51.502;6.918;2023-11-19T07:07:31;11.10;99.90
17215;DHT22;8723;51.502;6.918;2023-11-19T07:09:58;11.10;99.90
17215;DHT22;8723;51.502;6.918;2023-11-19T07:12:25;11.00;99.90
17215;DHT22;8723;51.502;6.918;2023-11-19T07:14:54;11.00;99.90
17215;DHT22;8723;51.502;6.918;2023-11-19T07:17:21;11.00;99.90
17215;DHT22;8723;51.502;6.918;2023-11-19T07:19:49;11.00;99.90
17215;DHT22;8723;51.502;6.918;2023-11-19T07:22:16;11.00;99.90
17215;DHT22;8723;51.502;6.918;2023-11-19T07:24:43;11.00;99.90
17215;DHT22;8723;51.502;6.918;2023-11-19T07:27:10;11.00;99.90
17215;DHT22;8723;51.502;6.918;2023-11-19T07:29:38;10.90;99.90
17215;DHT22;8723;51.502;6.918;2023-11-19T07:32:06;10.90;99.90
17215;DHT22;8723;51.502;6.918;2023-11-19T07:34:34;10.80;99.90
17215;DHT22;8723;51.502;6.918;2023-11-19T07:37:01;10.80;99.90
17215;DHT22;8723;51.502;6.918;2023-11-19T07:39:28;10.80;99.90
17215;DHT22;8723;51.502;6.918;2023-11-19T07:41:55;10.80;99.90
17215;DHT22;8723;51.502;6.918;2023-11-19T07:44:22;10.90;99.90
17215;DHT22;8723;51.502;6.918;2023-11-19T07:46:50;10.90;99.90
17215;DHT22;8723;51.502;6.918;2023-11-19T07:49:18;10.80;99.90
17215;DHT22;8723;51.502;6.918;2023-11-19T07:51:45;10.80;99.90
17215;DHT22;8723;51.502;6.918;2023-11-19T07:54:11;10.80;99.90
17215;DHT22;8723;51.502;6.918;2023-11-19T07:56:40;10.80;99.90
17215;DHT22;8723;51.502;6.918;2023-11-19T07:59:07;10.80;99.90
17215;DHT22;8723;51.502;6.918;2023-11-19T08:01:33;10.80;99.90
17215;DHT22;8723;51.502;6.918;2023-11-19T08:04:00;10.80;99.90
17215;DHT22;8723;51.502;6.918;2023-11-19T08:06:29;10.90;99.90
17215;DHT22;8723;51.502;6.918;2023-11-19T08:08:56;10.90;99.90
17215;DHT22;8723;51.502;6.918;2023-11-19T08:11:23;10.90;99.90
17215;DHT22;8723;51.502;6.918;2023-11-19T08:13:50;10.90;99.90
17215;DHT22;8723;51.502;6.918;2023-11-19T08:16:17;10.90;99.90
17215;DHT22;8723;51.502;6.918;2023-11-19T08:18:44;10.90;99.90
17215;DHT22;8723;51.502;6.918;2023-11-19T08:21:11;10.90;99.90
17215;DHT22;8723;51.502;6.918;2023-11-19T08:23:39;11.00;99.90
17215;DHT22;8723;51.502;6.918;2023-11-19T08:26:06;11.00;99.90
17215;DHT22;8723;51.502;6.918;2023-11-19T08:28:33;11.00;99.90
17215;DHT22;8723;51.502;6.918;2023-11-19T08:31:00;11.10;99.90
17215;DHT22;8723;51.502;6.918;2023-11-19T08:33:27;11.10;99.90
17215;DHT22;8723;51.502;6.918;2023-11-19T08:35:54;11.20;99.90
17215;DHT22;8723;51.502;6.918;2023-11-19T08:38:21;11.30;99.90
17215;DHT22;8723;51.502;6.918;2023-11-19T08:40:49;11.20;99.90
17215;DHT22;8723;51.502;6.918;2023-11-19T08:43:17;11.30;99.90
17215;DHT22;8723;51.502;6.918;2023-11-19T08:45:44;11.30;99.90
17215;DHT22;8723;51.502;6.918;2023-11-19T08:48:11;11.20;99.90
17215;DHT22;8723;51.502;6.918;2023-11-19T08:50:37;11.20;99.90
17215;DHT22;8723;51.502;6.918;2023-11-19T08:53:04;11.20;99.90
17215;DHT22;8723;51.502;6.918;2023-11-19T08:55:32;11.20;99.90
17215;DHT22;8723;51.502;6.918;2023-11-19T08:58:00;11.20;99.90
17215;DHT22;8723;51.502;6.918;2023-11-19T09:00:27;11.20;99.90
17215;DHT22;8723;51.502;6.918;2023-11-19T09:02:55;11.30;99.90
17215;DHT22;8723;51.502;6.918;2023-11-19T09:05:23;11.30;99.90
17215;DHT22;8723;51.502;6.918;2023-11-19T09:07:50;11.30;99.90
17215;DHT22;8723;51.502;6.918;2023-11-19T09:10:17;11.40;99.90
17215;DHT22;8723;51.502;6.918;2023-11-19T09:12:44;11.40;99.90
17215;DHT22;8723;51.502;6.918;2023-11-19T09:15:12;11.60;99.90
17215;DHT22;8723;51.502;6.918;2023-11-19T09:17:39;11.60;99.90
17215;DHT22;8723;51.502;6.918;2023-11-19T09:20:07;11.70;99.90
17215;DHT22;8723;51.502;6.918;2023-11-19T09:22:37;11.80;99.90
17215;DHT22;8723;51.502;6.918;2023-11-19T09:25:04;11.90;99.90
17215;DHT22;8723;51.502;6.918;2023-11-19T09:27:31;11.90;99.90
17215;DHT22;8723;51.502;6.918;2023-11-19T09:29:58;11.90;99.90
17215;DHT22;8723;51.502;6.918;2023-11-19T09:32:26;11.90;99.90
17215;DHT22;8723;51.502;6.918;2023-11-19T09:34:53;12.00;99.90
17215;DHT22;8723;51.502;6.918;2023-11-19T09:37:20;12.10;99.90
17215;DHT22;8723;51.502;6.918;2023-11-19T09:39:47;12.10;1.00
17215;DHT22;8723;51.502;6.918;2023-11-19T09:42:13;12.20;99.90
17215;DHT22;8723;51.502;6.918;2023-11-19T09:44:42;12.20;99.90
17215;DHT22;8723;51.502;6.918;2023-11-19T09:47:11;12.20;99.90
17215;DHT22;8723;51.502;6.918;2023-11-19T09:49:39;12.20;99.90
17215;DHT22;8723;51.502;6.918;2023-11-19T09:52:06;12.30;96.20
17215;DHT22;8723;51.502;6.918;2023-11-19T09:54:33;12.40;53.00
17215;DHT22;8723;51.502;6.918;2023-11-19T09:57:02;12.50;21.00
17215;DHT22;8723;51.502;6.918;2023-11-19T09:59:29;12.50;8.70
17215;DHT22;8723;51.502;6.918;2023-11-19T10:01:56;12.50;4.40
17215;DHT22;8723;51.502;6.918;2023-11-19T10:04:24;12.40;15.60
17215;DHT22;8723;51.502;6.918;2023-11-19T10:06:53;12.40;1.30
17215;DHT22;8723;51.502;6.918;2023-11-19T10:09:20;12.50;1.00
17215;DHT22;8723;51.502;6.918;2023-11-19T10:11:47;12.50;2.00
17215;DHT22;8723;51.502;6.918;2023-11-19T10:14:14;12.60;1.00
17215;DHT22;8723;51.502;6.918;2023-11-19T10:16:41;12.60;1.00
17215;DHT22;8723;51.502;6.918;2023-11-19T10:19:12;12.50;1.00
17215;DHT22;8723;51.502;6.918;2023-11-19T10:21:45;12.50;1.00
17215;DHT22;8723;51.502;6.918;2023-11-19T10:24:14;12.50;1.00
17215;DHT22;8723;51.502;6.918;2023-11-19T10:26:41;12.50;1.00
17215;DHT22;8723;51.502;6.918;2023-11-19T10:29:08;12.50;1.00
17215;DHT22;8723;51.502;6.918;2023-11-19T10:31:55;12.50;1.00
17215;DHT22;8723;51.502;6.918;2023-11-19T10:34:25;12.60;1.00
17215;DHT22;8723;51.502;6.918;2023-11-19T10:36:52;12.60;1.00
17215;DHT22;8723;51.502;6.918;2023-11-19T10:39:20;12.60;1.00
17215;DHT22;8723;51.502;6.918;2023-11-19T10:41:49;12.60;1.00
17215;DHT22;8723;51.502;6.918;2023-11-19T10:44:31;12.60;1.00
17215;DHT22;8723;51.502;6.918;2023-11-19T10:47:01;12.60;1.00
17215;DHT22;8723;51.502;6.918;2023-11-19T10:49:28;12.60;1.00
17215;DHT22;8723;51.502;6.918;2023-11-19T10:51:55;12.60;1.00
17215;DHT22;8723;51.502;6.918;2023-11-19T10:54:25;12.60;1.00
17215;DHT22;8723;51.502;6.918;2023-11-19T10:56:55;12.60;1.00
17215;DHT22;8723;51.502;6.918;2023-11-19T10:59:27;12.70;1.00
17215;DHT22;8723;51.502;6.918;2023-11-19T11:01:56;12.70;1.00
17215;DHT22;8723;51.502;6.918;2023-11-19T11:04:24;12.70;1.00
17215;DHT22;8723;51.502;6.918;2023-11-19T11:06:54;12.70;1.00
17215;DHT22;8723;51.502;6.918;2023-11-19T11:09:21;12.70;1.00
17215;DHT22;8723;51.502;6.918;2023-11-19T11:11:50;12.70;1.00
17215;DHT22;8723;51.502;6.918;2023-11-19T11:14:18;12.80;1.00
17215;DHT22;8723;51.502;6.918;2023-11-19T11:16:48;12.80;1.00
17215;DHT22;8723;51.502;6.918;2023-11-19T11:19:16;12.80;1.00
17215;DHT22;8723;51.502;6.918;2023-11-19T11:21:45;12.80;1.00
17215;DHT22;8723;51.502;6.918;2023-11-19T11:27:38;12.80;1.00
17215;DHT22;8723;51.502;6.918;2023-11-19T11:30:13;12.90;1.00
17215;DHT22;8723;51.502;6.918;2023-11-19T11:32:50;13.00;1.00
17215;DHT22;8723;51.502;6.918;2023-11-19T11:35:29;13.10;1.00
17215;DHT22;8723;51.502;6.918;2023-11-19T11:38:03;13.20;1.00
17215;DHT22;8723;51.502;6.918;2023-11-19T11:40:30;13.30;1.00
17215;DHT22;8723;51.502;6.918;2023-11-19T11:42:58;13.30;1.00
17215;DHT22;8723;51.502;6.918;2023-11-19T11:45:35;13.30;1.00
17215;DHT22;8723;51.502;6.918;2023-11-19T11:48:15;13.30;1.00
17215;DHT22;8723;51.502;6.918;2023-11-19T11:50:49;13.30;1.00
17215;DHT22;8723;51.502;6.918;2023-11-19T11:53:17;13.20;1.00
17215;DHT22;8723;51.502;6.918;2023-11-19T11:55:55;13.20;1.00
17215;DHT22;8723;51.502;6.918;2023-11-19T11:58:31;13.20;1.00
17215;DHT22;8723;51.502;6.918;2023-11-19T12:00:58;13.10;1.00
17215;DHT22;8723;51.502;6.918;2023-11-19T12:03:28;13.00;1.00
17215;DHT22;8723;51.502;6.918;2023-11-19T12:05:54;12.90;1.00
17215;DHT22;8723;51.502;6.918;2023-11-19T12:08:25;13.00;1.00
17215;DHT22;8723;51.502;6.918;2023-11-19T12:10:54;13.10;1.00
17215;DHT22;8723;51.502;6.918;2023-11-19T12:13:23;13.20;1.00
17215;DHT22;8723;51.502;6.918;2023-11-19T12:16:11;13.30;1.00
17215;DHT22;8723;51.502;6.918;2023-11-19T12:18:41;13.30;1.00
17215;DHT22;8723;51.502;6.918;2023-11-19T12:21:08;13.30;1.00
17215;DHT22;8723;51.502;6.918;2023-11-19T12:23:45;13.20;1.00
17215;DHT22;8723;51.502;6.918;2023-11-19T12:26:34;13.10;1.00
17215;DHT22;8723;51.502;6.918;2023-11-19T12:29:01;13.10;1.00
17215;DHT22;8723;51.502;6.918;2023-11-19T12:31:33;13.10;1.00
17215;DHT22;8723;51.502;6.918;2023-11-19T12:34:09;13.00;1.00
17215;DHT22;8723;51.502;6.918;2023-11-19T12:36:41;13.00;1.00
17215;DHT22;8723;51.502;6.918;2023-11-19T12:39:08;13.00;1.00
17215;DHT22;8723;51.502;6.918;2023-11-19T12:41:51;13.00;1.00
17215;DHT22;8723;51.502;6.918;2023-11-19T12:44:18;12.90;1.00
17215;DHT22;8723;51.502;6.918;2023-11-19T12:46:46;12.80;1.00
17215;DHT22;8723;51.502;6.918;2023-11-19T12:49:25;12.60;1.00
17215;DHT22;8723;51.502;6.918;2023-11-19T12:51:52;12.50;2.00
17215;DHT22;8723;51.502;6.918;2023-11-19T12:54:19;12.40;63.70
17215;DHT22;8723;51.502;6.918;2023-11-19T12:56:51;12.30;94.50
17215;DHT22;8723;51.502;6.918;2023-11-19T12:59:18;12.20;99.90
17215;DHT22;8723;51.502;6.918;2023-11-19T13:01:55;12.20;99.90
17215;DHT22;8723;51.502;6.918;2023-11-19T13:04:22;12.20;99.90
17215;DHT22;8723;51.502;6.918;2023-11-19T13:06:50;12.20;99.90
17215;DHT22;8723;51.502;6.918;2023-11-19T13:09:23;12.20;99.90
17215;DHT22;8723;51.502;6.918;2023-11-19T13:11:51;12.20;99.90
17215;DHT22;8723;51.502;6.918;2023-11-19T13:14:18;12.10;99.90
17215;DHT22;8723;51.502;6.918;2023-11-19T13:16:46;12.10;99.90
17215;DHT22;8723;51.502;6.918;2023-11-19T13:19:15;12.20;99.90
17215;DHT22;8723;51.502;6.918;2023-11-19T13:21:44;12.30;93.10
17215;DHT22;8723;51.502;6.918;2023-11-19T13:24:12;12.40;17.60
17215;DHT22;8723;51.502;6.918;2023-11-19T13:26:39;12.40;1.00
17215;DHT22;8723;51.502;6.918;2023-11-19T13:29:06;12.40;1.00
17215;DHT22;8723;51.502;6.918;2023-11-19T13:31:33;12.40;1.00
17215;DHT22;8723;51.502;6.918;2023-11-19T13:34:00;12.30;1.00
17215;DHT22;8723;51.502;6.918;2023-11-19T13:36:28;12.30;1.00
17215;DHT22;8723;51.502;6.918;2023-11-19T13:38:55;12.30;1.00
17215;DHT22;8723;51.502;6.918;2023-11-19T13:41:25;12.30;3.50
17215;DHT22;8723;51.502;6.918;2023-11-19T13:43:51;12.30;33.00
17215;DHT22;8723;51.502;6.918;2023-11-19T13:46:19;12.30;21.80
17215;DHT22;8723;51.502;6.918;2023-11-19T13:48:45;12.40;98.80
17215;DHT22;8723;51.502;6.918;2023-11-19T13:51:14;12.40;99.90
17215;DHT22;8723;51.502;6.918;2023-11-19T13:53:42;12.40;99.90
17215;DHT22;8723;51.502;6.918;2023-11-19T13:56:09;12.30;53.90
17215;DHT22;8723;51.502;6.918;2023-11-19T13:58:36;12.30;65.40
17215;DHT22;8723;51.502;6.918;2023-11-19T14:01:03;12.20;99.90
17215;DHT22;8723;51.502;6.918;2023-11-19T14:03:30;12.20;17.30
17215;DHT22;8723;51.502;6.918;2023-11-19T14:05:56;12.20;9.60
17215;DHT22;8723;51.502;6.918;2023-11-19T14:08:23;12.20;19.60
17215;DHT22;8723;51.502;6.918;2023-11-19T14:10:52;12.20;1.00
17215;DHT22;8723;51.502;6.918;2023-11-19T14:13:20;12.20;1.00
17215;DHT22;8723;51.502;6.918;2023-11-19T14:15:49;12.20;1.00
17215;DHT22;8723;51.502;6.918;2023-11-19T14:18:16;12.20;1.00
17215;DHT22;8723;51.502;6.918;2023-11-19T14:20:43;12.30;1.00
17215;DHT22;8723;51.502;6.918;2023-11-19T14:23:09;12.20;43.60
17215;DHT22;8723;51.502;6.918;2023-11-19T14:25:36;12.10;99.90
17215;DHT22;8723;51.502;6.918;2023-11-19T14:28:04;12.10;99.90
17215;DHT22;8723;51.502;6.918;2023-11-19T14:30:31;12.00;99.90
17215;DHT22;8723;51.502;6.918;2023-11-19T14:32:59;11.90;99.90
17215;DHT22;8723;51.502;6.918;2023-11-19T14:35:26;11.80;1.00
17215;DHT22;8723;51.502;6.918;2023-11-19T14:37:52;11.80;99.90
17215;DHT22;8723;51.502;6.918;2023-11-19T14:40:19;11.80;1.00
17215;DHT22;8723;51.502;6.918;2023-11-19T14:42:47;11.80;1.00
17215;DHT22;8723;51.502;6.918;2023-11-19T14:45:15;11.70;1.00
17215;DHT22;8723;51.502;6.918;2023-11-19T14:47:43;11.70;1.00
17215;DHT22;8723;51.502;6.918;2023-11-19T14:50:10;11.70;1.00
17215;DHT22;8723;51.502;6.918;2023-11-19T14:52:37;11.70;99.90
17215;DHT22;8723;51.502;6.918;2023-11-19T14:55:05;11.60;99.90
17215;DHT22;8723;51.502;6.918;2023-11-19T14:57:32;11.60;1.00
17215;DHT22;8723;51.502;6.918;2023-11-19T14:59:59;11.70;1.00
17215;DHT22;8723;51.502;6.918;2023-11-19T15:02:28;11.70;99.90
17215;DHT22;8723;51.502;6.918;2023-11-19T15:04:53;11.70;99.90
17215;DHT22;8723;51.502;6.918;2023-11-19T15:07:20;11.60;1.00
17215;DHT22;8723;51.502;6.918;2023-11-19T15:09:48;11.50;1.00
17215;DHT22;8723;51.502;6.918;2023-11-19T15:12:15;11.50;1.00
17215;DHT22;8723;51.502;6.918;2023-11-19T15:14:42;11.60;1.00
17215;DHT22;8723;51.502;6.918;2023-11-19T15:17:08;11.60;1.00
17215;DHT22;8723;51.502;6.918;2023-11-19T15:19:37;11.60;1.00
17215;DHT22;8723;51.502;6.918;2023-11-19T15:22:04;11.60;1.00
17215;DHT22;8723;51.502;6.918;2023-11-19T15:24:31;11.60;1.00
17215;DHT22;8723;51.502;6.918;2023-11-19T15:26:58;11.60;1.00
17215;DHT22;8723;51.502;6.918;2023-11-19T15:29:25;11.60;1.00
17215;DHT22;8723;51.502;6.918;2023-11-19T15:31:51;11.50;99.90
17215;DHT22;8723;51.502;6.918;2023-11-19T15:34:18;11.40;99.90
17215;DHT22;8723;51.502;6.918;2023-11-19T15:36:47;11.50;1.00
17215;DHT22;8723;51.502;6.918;2023-11-19T15:39:14;11.40;1.00
17215;DHT22;8723;51.502;6.918;2023-11-19T15:41:41;11.30;92.40
17215;DHT22;8723;51.502;6.918;2023-11-19T15:44:07;11.30;99.90
17215;DHT22;8723;51.502;6.918;2023-11-19T15:46:34;11.20;99.90
17215;DHT22;8723;51.502;6.918;2023-11-19T15:49:01;11.20;99.90
17215;DHT22;8723;51.502;6.918;2023-11-19T15:51:28;11.20;99.90
17215;DHT22;8723;51.502;6.918;2023-11-19T15:53:56;11.20;99.90
17215;DHT22;8723;51.502;6.918;2023-11-19T15:56:23;11.20;99.90
17215;DHT22;8723;51.502;6.918;2023-11-19T15:58:49;11.10;99.90
17215;DHT22;8723;51.502;6.918;2023-11-19T16:01:17;11.10;99.90